createdAt,value
2022-08-23T00:04:16.216Z,988.6
2022-08-23T00:09:35.897Z,988.6
2022-08-23T00:14:55.172Z,988.6
2022-08-23T00:20:24.499Z,988.6
2022-08-23T00:25:45.149Z,988.5
2022-08-23T00:30:53.440Z,988.5
2022-08-23T00:36:12.286Z,988.6
2022-08-23T00:41:31.856Z,988.6
2022-08-23T00:46:50.743Z,988.6
2022-08-23T00:52:09.771Z,988.5
2022-08-23T00:57:28.873Z,988.5
2022-08-23T01:02:48.271Z,988.5
2022-08-23T01:08:07.454Z,988.5
2022-08-23T01:13:26.524Z,988.4
2022-08-23T01:18:45.587Z,988.4
2022-08-23T01:24:04.373Z,988.4
2022-08-23T01:32:37.438Z,988.4
2022-08-23T01:41:10.441Z,988.5
2022-08-23T01:50:40.420Z,988.5
2022-08-23T01:55:59.958Z,988.5
2022-08-23T02:04:33.021Z,988.5
2022-08-23T02:06:38.975Z,988.6
2022-08-23T02:17:17.638Z,988.7
2022-08-23T02:22:36.675Z,988.7
2022-08-23T02:31:09.706Z,988.7
2022-08-23T02:33:15.232Z,988.7
2022-08-23T02:38:34.713Z,988.7
2022-08-23T02:43:54.221Z,988.7
2022-08-23T02:49:13.707Z,988.7
2022-08-23T02:54:44.437Z,988.7
2022-08-23T02:59:52.509Z,988.8
2022-08-23T03:08:37.556Z,988.8
2022-08-23T03:12:42.083Z,988.8
2022-08-23T03:16:58.599Z,988.9
2022-08-23T03:21:10.288Z,988.8
2022-08-23T03:26:29.884Z,988.8
2022-08-23T03:31:48.723Z,988.8
2022-08-23T03:37:18.559Z,988.8
2022-08-23T03:41:24.245Z,988.8
2022-08-23T03:48:24.428Z,988.8
2022-08-23T03:53:44.071Z,988.9
2022-08-23T03:59:02.944Z,989
2022-08-23T04:04:22.027Z,989
2022-08-23T04:09:41.465Z,989
2022-08-23T04:15:02.434Z,989
2022-08-23T04:20:30.765Z,989.1
2022-08-23T04:25:38.718Z,989.1
2022-08-23T04:31:07.544Z,989.2
2022-08-23T04:36:28.168Z,989.2
2022-08-23T04:44:50.187Z,989.2
2022-08-23T04:53:23.284Z,989.4
2022-08-23T04:57:33.278Z,989.5
2022-08-23T05:02:52.076Z,989.5
2022-08-23T05:11:25.162Z,989.6
2022-08-23T05:24:13.648Z,989.6
2022-08-23T05:29:28.716Z,989.6
2022-08-23T05:34:48.125Z,989.6
2022-08-23T05:40:07.746Z,989.7
2022-08-23T05:48:40.980Z,989.7
2022-08-23T05:57:13.818Z,989.7
2022-08-23T06:06:44.352Z,989.7
2022-08-23T06:12:15.405Z,989.8
2022-08-23T06:17:22.444Z,989.7
2022-08-23T06:22:41.278Z,989.7
2022-08-23T06:28:00.794Z,989.7
2022-08-23T06:33:19.740Z,989.7
2022-08-23T06:38:39.205Z,989.7
2022-08-23T06:49:18.060Z,989.7
2022-08-23T06:54:36.897Z,989.7
2022-08-23T06:59:56.400Z,989.7
2022-08-23T07:08:29.426Z,989.7
2022-08-23T07:12:45.959Z,989.7
2022-08-23T07:21:13.150Z,989.7
2022-08-23T07:26:32.077Z,989.7
2022-08-23T07:35:05.126Z,989.7
2022-08-23T07:37:11.255Z,989.8
2022-08-23T07:42:28.534Z,989.7
2022-08-23T07:47:50.402Z,989.7
2022-08-23T07:53:07.627Z,989.7
2022-08-23T07:58:26.436Z,989.7
2022-08-23T08:03:45.394Z,989.7
2022-08-23T08:09:04.578Z,989.7
2022-08-23T08:17:37.650Z,989.7
2022-08-23T08:19:42.494Z,989.7
2022-08-23T08:30:20.339Z,989.8
2022-08-23T08:35:39.632Z,989.8
2022-08-23T08:40:58.837Z,989.8
2022-08-23T08:46:18.092Z,989.8
2022-08-23T08:54:53.100Z,989.7
2022-08-23T09:02:16.948Z,989.8
2022-08-23T09:07:34.418Z,989.8
2022-08-23T09:12:53.421Z,989.8
2022-08-23T09:18:12.298Z,989.7
2022-08-23T09:23:31.358Z,989.7
2022-08-23T09:32:04.399Z,989.7
2022-08-23T09:39:30.422Z,989.7
2022-08-23T09:44:48.123Z,989.6
2022-08-23T09:50:07.562Z,989.7
2022-08-23T09:55:27.230Z,989.7
2022-08-23T10:00:46.810Z,989.7
2022-08-23T10:06:05.563Z,989.7
2022-08-23T10:11:24.917Z,989.6
2022-08-23T10:16:43.743Z,989.6
2022-08-23T10:22:02.803Z,989.5
2022-08-23T10:27:21.812Z,989.5
2022-08-23T10:32:40.440Z,989.4
2022-08-23T10:41:13.527Z,989.4
2022-08-23T10:45:42.072Z,989.4
2022-08-23T10:49:46.590Z,989.3
2022-08-23T10:53:56.752Z,989.3
2022-08-23T11:02:29.858Z,989.2
2022-08-23T11:15:13.244Z,989.2
2022-08-23T11:20:32.749Z,989.2
2022-08-23T11:25:52.199Z,989.1
2022-08-23T11:31:11.718Z,989
2022-08-23T11:36:29.893Z,989
2022-08-23T11:41:48.733Z,988.9
2022-08-23T11:47:07.720Z,988.9
2022-08-23T11:52:27.023Z,989
2022-08-23T12:01:00.088Z,989
2022-08-23T12:03:04.826Z,988.9
2022-08-23T12:08:23.528Z,989
2022-08-23T12:13:42.224Z,988.9
2022-08-23T12:22:15.244Z,988.9
2022-08-23T12:24:20.671Z,988.9
2022-08-23T12:29:39.791Z,988.9
2022-08-23T12:34:58.935Z,988.9
2022-08-23T12:40:18.456Z,988.8
2022-08-23T12:45:37.453Z,988.8
2022-08-23T12:50:56.635Z,988.7
2022-08-23T12:56:15.860Z,988.7
2022-08-23T13:01:35.702Z,988.7
2022-08-23T13:06:54.614Z,988.7
2022-08-23T13:12:13.562Z,988.7
2022-08-23T13:17:44.942Z,988.7
2022-08-23T13:23:03.521Z,988.7
2022-08-23T13:28:11.106Z,988.6
2022-08-23T13:33:31.118Z,988.6
2022-08-23T13:38:49.357Z,988.5
2022-08-23T13:44:08.477Z,988.5
2022-08-23T13:49:28.025Z,988.6
2022-08-23T13:54:47.215Z,988.5
2022-08-23T14:00:06.622Z,988.5
2022-08-23T14:05:25.605Z,988.5
2022-08-23T14:10:45.069Z,988.4
2022-08-23T14:16:33.384Z,988.5
2022-08-23T14:21:23.542Z,988.5
2022-08-23T14:26:48.882Z,988.5
2022-08-23T14:32:01.802Z,988.4
2022-08-23T14:38:00.411Z,988.4
2022-08-23T14:42:39.448Z,988.4
2022-08-23T14:47:59.071Z,988.4
2022-08-23T14:53:18.017Z,988.4
2022-08-23T14:58:37.298Z,988.3
2022-08-23T15:03:56.893Z,988.3
2022-08-23T15:09:15.633Z,988.4
2022-08-23T15:14:34.473Z,988.4
2022-08-23T15:19:54.915Z,988.3
2022-08-23T15:28:26.952Z,988.3
2022-08-23T15:32:52.428Z,988.3
2022-08-23T15:41:16.565Z,988.2
2022-08-23T15:46:29.424Z,988.2
2022-08-23T15:51:48.371Z,988.3
2022-08-23T15:57:07.374Z,988.2
2022-08-23T16:02:26.440Z,988.3
2022-08-23T16:07:45.533Z,988.3
2022-08-23T16:13:04.639Z,988.2
2022-08-23T16:18:24.173Z,988.2
2022-08-23T16:23:43.416Z,988.2
2022-08-23T16:29:02.302Z,988.2
2022-08-23T16:34:21.598Z,988.2
2022-08-23T16:39:41.239Z,988.3
2022-08-23T16:44:59.879Z,988.3
2022-08-23T16:50:19.011Z,988.3
2022-08-23T16:55:38.396Z,988.3
2022-08-23T17:00:57.467Z,988.3
2022-08-23T17:06:16.396Z,988.3
2022-08-23T17:11:35.677Z,988.3
2022-08-23T17:16:55.396Z,988.3
2022-08-23T17:22:14.046Z,988.3
2022-08-23T17:27:33.317Z,988.4
2022-08-23T17:32:52.083Z,988.5
2022-08-23T17:38:11.553Z,988.5
2022-08-23T17:43:30.284Z,988.5
2022-08-23T17:52:03.376Z,988.6
2022-08-23T17:59:38.865Z,988.7
2022-08-23T18:04:47.443Z,988.7
2022-08-23T18:10:16.161Z,988.8
2022-08-23T18:15:36.478Z,988.8
2022-08-23T18:20:44.354Z,988.9
2022-08-23T18:26:03.671Z,988.9
2022-08-23T18:31:22.835Z,989
2022-08-23T18:36:41.491Z,989.1
2022-08-23T18:42:00.477Z,989.1
2022-08-23T18:47:20.112Z,989.2
2022-08-23T18:55:53.165Z,989.2
2022-08-23T19:04:26.241Z,989.4
2022-08-23T19:08:36.326Z,989.5
2022-08-23T19:13:55.577Z,989.5
2022-08-23T19:19:14.622Z,989.5
2022-08-23T19:24:45.580Z,989.6
2022-08-23T19:29:53.009Z,989.6
2022-08-23T19:35:12.660Z,989.7
2022-08-23T19:40:31.794Z,989.7
2022-08-23T19:45:51.684Z,989.8
2022-08-23T19:51:10.117Z,989.9
2022-08-23T19:59:43.173Z,990
2022-08-23T20:01:48.325Z,990
2022-08-23T20:07:07.354Z,990
2022-08-23T20:15:40.406Z,990.1
2022-08-23T20:23:04.479Z,990.2
2022-08-23T20:28:26.345Z,990.2
2022-08-23T20:33:46.210Z,990.2
2022-08-23T20:39:01.786Z,990.3
2022-08-23T20:44:21.068Z,990.3
2022-08-23T20:52:54.137Z,990.4
2022-08-23T20:54:59.296Z,990.4
2022-08-23T21:05:41.898Z,990.5
2022-08-23T21:11:07.799Z,990.5
2022-08-23T21:16:26.553Z,990.5
2022-08-23T21:21:34.246Z,990.5
2022-08-23T21:26:53.567Z,990.4
2022-08-23T21:35:26.649Z,990.5
2022-08-23T21:37:31.330Z,990.6
2022-08-23T21:42:50.860Z,990.5
2022-08-23T21:48:09.660Z,990.6
2022-08-23T21:53:40.194Z,990.7
2022-08-23T21:58:50.442Z,990.6
2022-08-23T22:04:07.962Z,990.7
2022-08-23T22:09:27.882Z,990.7
2022-08-23T22:19:02.922Z,990.6
2022-08-23T22:24:50.016Z,990.7
2022-08-23T22:30:21.222Z,990.6
2022-08-23T22:38:42.286Z,990.7
2022-08-23T22:43:11.010Z,990.7
2022-08-23T22:47:27.328Z,990.8
2022-08-23T22:56:44.520Z,990.8
2022-08-23T23:02:03.743Z,990.8
2022-08-23T23:11:40.277Z,990.8
2022-08-23T23:34:10.582Z,990.9
2022-08-23T23:39:29.556Z,991
2022-08-23T23:47:50.567Z,990.9
2022-08-23T23:55:15.483Z,990.9
